sensor_id;sensor_type;location;lat;lon;timestamp;pressure;altitude;pressure_sealevel;temperature;humidity
63339;BME280;47485;51.378;-1.342;2023-04-01T00:01:00;98581.32;;;2.77;54.74
63339;BME280;47485;51.378;-1.342;2023-04-01T00:03:27;98588.92;;;3.91;54.34
63339;BME280;47485;51.378;-1.342;2023-04-01T00:05:55;98585.78;;;3.86;55.07
63339;BME280;47485;51.378;-1.342;2023-04-01T00:08:22;98592.68;;;3.31;54.77
63339;BME280;47485;51.378;-1.342;2023-04-01T00:10:49;98596.14;;;3.63;54.86
63339;BME280;47485;51.378;-1.342;2023-04-01T00:13:16;98595.45;;;3.90;54.46
63339;BME280;47485;51.378;-1.342;2023-04-01T00:15:43;98597.24;;;4.11;53.39
63339;BME280;47485;51.378;-1.342;2023-04-01T00:18:11;98595.95;;;3.68;52.08
63339;BME280;47485;51.378;-1.342;2023-04-01T00:20:38;98598.61;;;4.63;51.40
63339;BME280;47485;51.378;-1.342;2023-04-01T00:23:04;98601.35;;;3.68;52.01
63339;BME280;47485;51.378;-1.342;2023-04-01T00:25:31;98602.06;;;4.51;49.97
63339;BME280;47485;51.378;-1.342;2023-04-01T00:27:58;98605.58;;;3.91;51.22
63339;BME280;47485;51.378;-1.342;2023-04-01T00:30:25;98610.74;;;2.50;53.48
63339;BME280;47485;51.378;-1.342;2023-04-01T00:32:51;98614.63;;;3.81;54.45
63339;BME280;47485;51.378;-1.342;2023-04-01T00:35:18;98615.42;;;3.32;53.94
63339;BME280;47485;51.378;-1.342;2023-04-01T00:37:45;98617.02;;;2.61;55.07
63339;BME280;47485;51.378;-1.342;2023-04-01T00:40:24;98613.37;;;3.06;54.64
63339;BME280;47485;51.378;-1.342;2023-04-01T00:42:52;98615.48;;;3.90;53.32
63339;BME280;47485;51.378;-1.342;2023-04-01T00:45:27;98621.01;;;4.55;50.24
63339;BME280;47485;51.378;-1.342;2023-04-01T00:47:55;98618.99;;;5.66;48.42
63339;BME280;47485;51.378;-1.342;2023-04-01T00:50:24;98619.80;;;5.44;48.67
63339;BME280;47485;51.378;-1.342;2023-04-01T00:52:52;98625.63;;;4.75;50.06
63339;BME280;47485;51.378;-1.342;2023-04-01T00:55:21;98632.66;;;4.22;52.21
63339;BME280;47485;51.378;-1.342;2023-04-01T00:57:50;98632.68;;;3.51;53.85
63339;BME280;47485;51.378;-1.342;2023-04-01T01:00:20;98637.05;;;3.82;52.55
63339;BME280;47485;51.378;-1.342;2023-04-01T01:02:47;98635.99;;;4.89;51.46
63339;BME280;47485;51.378;-1.342;2023-04-01T01:05:17;98637.57;;;4.24;52.94
63339;BME280;47485;51.378;-1.342;2023-04-01T01:07:54;98640.85;;;3.65;52.20
63339;BME280;47485;51.378;-1.342;2023-04-01T01:10:30;98642.67;;;5.46;49.74
63339;BME280;47485;51.378;-1.342;2023-04-01T01:13:05;98638.39;;;5.63;49.53
63339;BME280;47485;51.378;-1.342;2023-04-01T01:15:41;98638.32;;;4.63;49.99
63339;BME280;47485;51.378;-1.342;2023-04-01T01:18:18;98633.01;;;5.78;48.55
63339;BME280;47485;51.378;-1.342;2023-04-01T01:21:19;98640.11;;;5.16;47.19
63339;BME280;47485;51.378;-1.342;2023-04-01T01:24:06;98640.59;;;5.88;45.10
63339;BME280;47485;51.378;-1.342;2023-04-01T01:26:55;98640.34;;;6.36;43.93
63339;BME280;47485;51.378;-1.342;2023-04-01T01:29:40;98646.21;;;6.83;44.60
63339;BME280;47485;51.378;-1.342;2023-04-01T01:32:16;98643.54;;;6.31;44.27
63339;BME280;47485;51.378;-1.342;2023-04-01T01:34:50;98645.00;;;5.62;46.81
63339;BME280;47485;51.378;-1.342;2023-04-01T01:37:24;98644.02;;;5.19;48.27
63339;BME280;47485;51.378;-1.342;2023-04-01T01:39:56;98648.16;;;5.80;49.59
63339;BME280;47485;51.378;-1.342;2023-04-01T01:42:26;98650.21;;;5.00;50.04
63339;BME280;47485;51.378;-1.342;2023-04-01T01:44:53;98650.21;;;5.30;49.78
63339;BME280;47485;51.378;-1.342;2023-04-01T01:47:23;98654.49;;;4.28;48.84
63339;BME280;47485;51.378;-1.342;2023-04-01T01:49:51;98655.81;;;4.85;48.71
63339;BME280;47485;51.378;-1.342;2023-04-01T01:52:19;98657.97;;;5.27;49.39
63339;BME280;47485;51.378;-1.342;2023-04-01T01:54:48;98658.40;;;3.53;51.27
63339;BME280;47485;51.378;-1.342;2023-04-01T01:57:15;98665.03;;;4.10;51.15
63339;BME280;47485;51.378;-1.342;2023-04-01T01:59:43;98670.58;;;3.15;51.78
63339;BME280;47485;51.378;-1.342;2023-04-01T02:02:13;98667.60;;;5.79;49.83
63339;BME280;47485;51.378;-1.342;2023-04-01T02:04:42;98673.26;;;2.76;51.14
63339;BME280;47485;51.378;-1.342;2023-04-01T02:07:13;98669.73;;;4.15;49.10
63339;BME280;47485;51.378;-1.342;2023-04-01T02:09:42;98674.60;;;5.26;50.40
63339;BME280;47485;51.378;-1.342;2023-04-01T02:12:13;98680.33;;;4.63;49.25
63339;BME280;47485;51.378;-1.342;2023-04-01T02:14:44;98678.35;;;4.96;48.54
63339;BME280;47485;51.378;-1.342;2023-04-01T02:17:15;98682.12;;;4.93;50.07
63339;BME280;47485;51.378;-1.342;2023-04-01T02:19:47;98681.06;;;4.89;49.56
63339;BME280;47485;51.378;-1.342;2023-04-01T02:22:21;98684.26;;;6.46;48.78
63339;BME280;47485;51.378;-1.342;2023-04-01T02:24:52;98683.62;;;4.69;49.47
63339;BME280;47485;51.378;-1.342;2023-04-01T02:27:20;98687.64;;;3.96;51.24
63339;BME280;47485;51.378;-1.342;2023-04-01T02:29:47;98684.31;;;3.90;50.43
63339;BME280;47485;51.378;-1.342;2023-04-01T02:32:14;98687.11;;;4.16;50.02
63339;BME280;47485;51.378;-1.342;2023-04-01T02:34:43;98690.46;;;5.39;49.52
63339;BME280;47485;51.378;-1.342;2023-04-01T02:37:10;98690.25;;;5.81;47.62
63339;BME280;47485;51.378;-1.342;2023-04-01T02:39:37;98690.25;;;6.07;46.52
63339;BME280;47485;51.378;-1.342;2023-04-01T02:42:04;98695.80;;;4.58;48.38
63339;BME280;47485;51.378;-1.342;2023-04-01T02:44:31;98698.59;;;5.21;48.96
63339;BME280;47485;51.378;-1.342;2023-04-01T02:46:59;98700.38;;;4.25;49.03
63339;BME280;47485;51.378;-1.342;2023-04-01T02:49:26;98704.52;;;4.98;50.09
63339;BME280;47485;51.378;-1.342;2023-04-01T02:51:52;98700.45;;;4.66;50.77
63339;BME280;47485;51.378;-1.342;2023-04-01T02:54:20;98697.53;;;5.30;49.22
63339;BME280;47485;51.378;-1.342;2023-04-01T02:56:47;98698.48;;;4.49;48.98
63339;BME280;47485;51.378;-1.342;2023-04-01T02:59:14;98699.72;;;5.38;48.31
63339;BME280;47485;51.378;-1.342;2023-04-01T03:01:40;98701.41;;;5.21;49.99
63339;BME280;47485;51.378;-1.342;2023-04-01T03:04:07;98703.05;;;4.33;50.37
63339;BME280;47485;51.378;-1.342;2023-04-01T03:06:34;98703.80;;;4.12;51.49
63339;BME280;47485;51.378;-1.342;2023-04-01T03:09:01;98705.55;;;5.01;50.47
63339;BME280;47485;51.378;-1.342;2023-04-01T03:11:28;98706.93;;;4.77;49.87
63339;BME280;47485;51.378;-1.342;2023-04-01T03:13:54;98708.78;;;3.92;50.30
63339;BME280;47485;51.378;-1.342;2023-04-01T03:16:22;98707.88;;;6.15;48.77
63339;BME280;47485;51.378;-1.342;2023-04-01T03:18:48;98713.52;;;4.63;49.45
63339;BME280;47485;51.378;-1.342;2023-04-01T03:21:17;98710.63;;;5.82;48.44
63339;BME280;47485;51.378;-1.342;2023-04-01T03:23:45;98711.68;;;6.63;48.84
63339;BME280;47485;51.378;-1.342;2023-04-01T03:26:12;98712.09;;;5.69;48.75
63339;BME280;47485;51.378;-1.342;2023-04-01T03:28:39;98713.32;;;5.47;48.37
63339;BME280;47485;51.378;-1.342;2023-04-01T03:31:06;98715.84;;;5.83;47.63
63339;BME280;47485;51.378;-1.342;2023-04-01T03:33:33;98715.57;;;4.29;48.89
63339;BME280;47485;51.378;-1.342;2023-04-01T03:35:59;98717.35;;;5.80;47.91
63339;BME280;47485;51.378;-1.342;2023-04-01T03:38:26;98716.06;;;5.79;47.51
63339;BME280;47485;51.378;-1.342;2023-04-01T03:40:54;98719.49;;;5.93;48.89
63339;BME280;47485;51.378;-1.342;2023-04-01T03:43:20;98723.42;;;5.29;49.05
63339;BME280;47485;51.378;-1.342;2023-04-01T03:45:50;98723.52;;;4.18;49.76
63339;BME280;47485;51.378;-1.342;2023-04-01T03:48:17;98725.92;;;4.67;50.47
63339;BME280;47485;51.378;-1.342;2023-04-01T03:50:44;98735.68;;;4.27;51.76
63339;BME280;47485;51.378;-1.342;2023-04-01T03:53:11;98736.37;;;4.63;51.41
63339;BME280;47485;51.378;-1.342;2023-04-01T03:55:38;98740.01;;;4.32;48.82
63339;BME280;47485;51.378;-1.342;2023-04-01T03:58:06;98743.22;;;5.37;45.97
63339;BME280;47485;51.378;-1.342;2023-04-01T04:00:33;98744.32;;;7.48;42.50
63339;BME280;47485;51.378;-1.342;2023-04-01T04:03:00;98750.82;;;6.77;44.89
63339;BME280;47485;51.378;-1.342;2023-04-01T04:05:27;98752.16;;;5.34;47.75
63339;BME280;47485;51.378;-1.342;2023-04-01T04:07:54;98756.84;;;5.88;48.47
63339;BME280;47485;51.378;-1.342;2023-04-01T04:10:21;98758.63;;;5.61;47.22
63339;BME280;47485;51.378;-1.342;2023-04-01T04:12:49;98756.76;;;5.17;47.53
63339;BME280;47485;51.378;-1.342;2023-04-01T04:15:15;98759.60;;;6.63;46.20
63339;BME280;47485;51.378;-1.342;2023-04-01T04:17:43;98761.19;;;6.79;45.70
63339;BME280;47485;51.378;-1.342;2023-04-01T04:20:10;98762.03;;;6.76;43.45
63339;BME280;47485;51.378;-1.342;2023-04-01T04:22:37;98764.89;;;5.39;43.34
63339;BME280;47485;51.378;-1.342;2023-04-01T04:25:04;98766.12;;;7.24;42.58
63339;BME280;47485;51.378;-1.342;2023-04-01T04:27:32;98767.71;;;8.12;41.34
63339;BME280;47485;51.378;-1.342;2023-04-01T04:29:59;98770.55;;;7.19;40.78
63339;BME280;47485;51.378;-1.342;2023-04-01T04:32:26;98769.48;;;7.81;40.87
63339;BME280;47485;51.378;-1.342;2023-04-01T04:34:53;98772.33;;;9.68;40.05
63339;BME280;47485;51.378;-1.342;2023-04-01T04:37:21;98774.13;;;8.75;40.37
63339;BME280;47485;51.378;-1.342;2023-04-01T04:39:49;98776.96;;;7.78;40.89
63339;BME280;47485;51.378;-1.342;2023-04-01T04:42:16;98778.56;;;8.36;41.10
63339;BME280;47485;51.378;-1.342;2023-04-01T04:44:43;98777.35;;;8.02;40.49
63339;BME280;47485;51.378;-1.342;2023-04-01T04:47:10;98784.70;;;8.56;40.86
63339;BME280;47485;51.378;-1.342;2023-04-01T04:49:36;98788.32;;;8.87;40.17
63339;BME280;47485;51.378;-1.342;2023-04-01T04:52:03;98785.79;;;9.27;39.07
63339;BME280;47485;51.378;-1.342;2023-04-01T04:54:31;98793.43;;;10.36;39.43
63339;BME280;47485;51.378;-1.342;2023-04-01T04:56:57;98794.86;;;9.00;39.82
63339;BME280;47485;51.378;-1.342;2023-04-01T04:59:24;98797.93;;;9.24;40.01
63339;BME280;47485;51.378;-1.342;2023-04-01T05:01:51;98804.30;;;8.70;39.58
63339;BME280;47485;51.378;-1.342;2023-04-01T05:04:18;98804.04;;;7.85;40.07
63339;BME280;47485;51.378;-1.342;2023-04-01T05:06:45;98808.60;;;8.53;38.72
63339;BME280;47485;51.378;-1.342;2023-04-01T05:09:12;98806.60;;;10.31;37.32
63339;BME280;47485;51.378;-1.342;2023-04-01T05:11:38;98808.18;;;10.45;37.14
63339;BME280;47485;51.378;-1.342;2023-04-01T05:14:05;98812.10;;;9.58;37.94
63339;BME280;47485;51.378;-1.342;2023-04-01T05:16:32;98814.37;;;9.64;37.31
63339;BME280;47485;51.378;-1.342;2023-04-01T05:18:58;98816.59;;;10.49;37.46
63339;BME280;47485;51.378;-1.342;2023-04-01T05:21:25;98819.57;;;9.41;37.94
63339;BME280;47485;51.378;-1.342;2023-04-01T05:23:52;98820.46;;;9.25;38.25
63339;BME280;47485;51.378;-1.342;2023-04-01T05:26:19;98817.73;;;10.40;36.27
63339;BME280;47485;51.378;-1.342;2023-04-01T05:28:45;98823.73;;;9.85;35.61
63339;BME280;47485;51.378;-1.342;2023-04-01T05:31:12;98826.75;;;9.90;36.01
63339;BME280;47485;51.378;-1.342;2023-04-01T05:33:39;98830.86;;;9.19;36.44
63339;BME280;47485;51.378;-1.342;2023-04-01T05:36:08;98832.15;;;10.69;34.54
63339;BME280;47485;51.378;-1.342;2023-04-01T05:38:35;98835.82;;;10.03;35.78
63339;BME280;47485;51.378;-1.342;2023-04-01T05:41:03;98837.71;;;11.30;34.24
63339;BME280;47485;51.378;-1.342;2023-04-01T05:43:32;98841.08;;;11.09;34.23
63339;BME280;47485;51.378;-1.342;2023-04-01T05:46:02;98843.81;;;8.48;34.75
63339;BME280;47485;51.378;-1.342;2023-04-01T05:48:30;98845.99;;;7.76;35.29
63339;BME280;47485;51.378;-1.342;2023-04-01T05:50:57;98853.95;;;6.83;36.77
63339;BME280;47485;51.378;-1.342;2023-04-01T05:53:24;98852.50;;;8.64;35.74
63339;BME280;47485;51.378;-1.342;2023-04-01T05:55:50;98855.85;;;5.99;35.49
63339;BME280;47485;51.378;-1.342;2023-04-01T05:58:17;98863.10;;;5.79;37.66
63339;BME280;47485;51.378;-1.342;2023-04-01T06:00:44;98861.82;;;8.54;34.03
63339;BME280;47485;51.378;-1.342;2023-04-01T06:03:11;98862.91;;;9.32;33.56
63339;BME280;47485;51.378;-1.342;2023-04-01T06:05:39;98864.97;;;8.60;34.69
63339;BME280;47485;51.378;-1.342;2023-04-01T06:08:10;98866.80;;;9.47;33.92
63339;BME280;47485;51.378;-1.342;2023-04-01T06:10:48;98871.43;;;5.93;34.89
63339;BME280;47485;51.378;-1.342;2023-04-01T06:13:25;98873.73;;;10.94;32.29
63339;BME280;47485;51.378;-1.342;2023-04-01T06:16:01;98874.71;;;8.56;33.44
63339;BME280;47485;51.378;-1.342;2023-04-01T06:18:45;98879.04;;;6.56;34.47
63339;BME280;47485;51.378;-1.342;2023-04-01T06:21:29;98881.65;;;11.83;30.68
63339;BME280;47485;51.378;-1.342;2023-04-01T06:24:08;98880.65;;;7.93;33.56
63339;BME280;47485;51.378;-1.342;2023-04-01T06:26:48;98881.51;;;9.48;31.62
63339;BME280;47485;51.378;-1.342;2023-04-01T06:29:35;98882.73;;;9.24;31.67
63339;BME280;47485;51.378;-1.342;2023-04-01T06:32:19;98886.56;;;9.38;31.16
63339;BME280;47485;51.378;-1.342;2023-04-01T06:35:07;98892.87;;;4.45;34.32
63339;BME280;47485;51.378;-1.342;2023-04-01T06:37:52;98897.68;;;4.33;35.50
63339;BME280;47485;51.378;-1.342;2023-04-01T06:40:37;98893.86;;;7.48;32.34
63339;BME280;47485;51.378;-1.342;2023-04-01T06:43:13;98892.51;;;9.04;31.31
63339;BME280;47485;51.378;-1.342;2023-04-01T06:45:49;98899.11;;;10.51;30.05
63339;BME280;47485;51.378;-1.342;2023-04-01T06:48:30;98900.15;;;12.07;29.96
63339;BME280;47485;51.378;-1.342;2023-04-01T06:51:07;98902.47;;;12.99;28.93
63339;BME280;47485;51.378;-1.342;2023-04-01T06:53:42;98905.81;;;12.83;28.86
63339;BME280;47485;51.378;-1.342;2023-04-01T06:56:16;98906.95;;;12.51;29.12
63339;BME280;47485;51.378;-1.342;2023-04-01T06:58:47;98911.59;;;12.13;30.08
63339;BME280;47485;51.378;-1.342;2023-04-01T07:01:20;98914.58;;;13.18;29.35
63339;BME280;47485;51.378;-1.342;2023-04-01T07:03:52;98918.25;;;12.03;30.28
63339;BME280;47485;51.378;-1.342;2023-04-01T07:06:26;98924.49;;;10.90;31.77
63339;BME280;47485;51.378;-1.342;2023-04-01T07:08:57;98926.23;;;10.33;31.63
63339;BME280;47485;51.378;-1.342;2023-04-01T07:11:28;98926.74;;;11.56;30.69
63339;BME280;47485;51.378;-1.342;2023-04-01T07:14:00;98935.04;;;7.72;32.53
63339;BME280;47485;51.378;-1.342;2023-04-01T07:16:31;98937.29;;;7.50;33.02
63339;BME280;47485;51.378;-1.342;2023-04-01T07:19:03;98944.04;;;6.61;35.06
63339;BME280;47485;51.378;-1.342;2023-04-01T07:21:35;98944.99;;;6.47;34.71
63339;BME280;47485;51.378;-1.342;2023-04-01T07:24:11;98945.33;;;7.55;34.04
63339;BME280;47485;51.378;-1.342;2023-04-01T07:26:42;98946.74;;;8.15;33.20
63339;BME280;47485;51.378;-1.342;2023-04-01T07:29:11;98946.95;;;10.08;32.38
63339;BME280;47485;51.378;-1.342;2023-04-01T07:31:49;98958.92;;;3.30;39.85
63339;BME280;47485;51.378;-1.342;2023-04-01T07:34:25;98961.86;;;6.23;37.46
63339;BME280;47485;51.378;-1.342;2023-04-01T07:36:58;98963.55;;;6.54;35.41
63339;BME280;47485;51.378;-1.342;2023-04-01T07:39:37;98968.50;;;4.82;37.41
63339;BME280;47485;51.378;-1.342;2023-04-01T07:42:11;98970.09;;;5.61;36.70
63339;BME280;47485;51.378;-1.342;2023-04-01T07:44:51;98972.17;;;6.37;35.92
63339;BME280;47485;51.378;-1.342;2023-04-01T07:47:33;98976.07;;;5.61;36.67
63339;BME280;47485;51.378;-1.342;2023-04-01T07:50:13;98977.43;;;5.96;37.37
63339;BME280;47485;51.378;-1.342;2023-04-01T07:52:51;98980.43;;;5.06;37.23
63339;BME280;47485;51.378;-1.342;2023-04-01T07:55:23;98982.63;;;5.88;35.74
63339;BME280;47485;51.378;-1.342;2023-04-01T07:57:58;98984.66;;;8.06;34.93
63339;BME280;47485;51.378;-1.342;2023-04-01T08:00:35;98990.22;;;5.69;36.85
63339;BME280;47485;51.378;-1.342;2023-04-01T08:03:15;98996.40;;;6.51;36.48
63339;BME280;47485;51.378;-1.342;2023-04-01T08:05:52;99003.34;;;1.86;40.09
63339;BME280;47485;51.378;-1.342;2023-04-01T08:08:30;98995.97;;;9.33;33.33
63339;BME280;47485;51.378;-1.342;2023-04-01T08:11:05;99006.62;;;2.56;39.45
63339;BME280;47485;51.378;-1.342;2023-04-01T08:13:39;99008.66;;;5.30;37.30
63339;BME280;47485;51.378;-1.342;2023-04-01T08:16:14;99008.84;;;9.23;34.72
63339;BME280;47485;51.378;-1.342;2023-04-01T08:18:48;99012.13;;;9.11;34.23
63339;BME280;47485;51.378;-1.342;2023-04-01T08:21:21;99017.82;;;8.54;34.46
63339;BME280;47485;51.378;-1.342;2023-04-01T08:23:52;99024.13;;;7.40;36.26
63339;BME280;47485;51.378;-1.342;2023-04-01T08:26:28;99029.73;;;5.43;38.00
63339;BME280;47485;51.378;-1.342;2023-04-01T08:29:00;99035.93;;;4.94;38.53
63339;BME280;47485;51.378;-1.342;2023-04-01T08:31:32;99045.07;;;0.75;43.47
63339;BME280;47485;51.378;-1.342;2023-04-01T08:34:02;99045.07;;;2.25;41.37
63339;BME280;47485;51.378;-1.342;2023-04-01T08:36:37;99043.30;;;7.54;37.16
63339;BME280;47485;51.378;-1.342;2023-04-01T08:39:07;99050.65;;;4.34;39.18
63339;BME280;47485;51.378;-1.342;2023-04-01T08:41:55;99053.10;;;4.13;40.69
63339;BME280;47485;51.378;-1.342;2023-04-01T08:44:47;99058.48;;;4.56;39.52
63339;BME280;47485;51.378;-1.342;2023-04-01T08:47:28;99054.16;;;8.61;35.96
63339;BME280;47485;51.378;-1.342;2023-04-01T08:50:12;99063.93;;;4.70;39.15
63339;BME280;47485;51.378;-1.342;2023-04-01T08:52:51;99078.06;;;2.39;42.85
63339;BME280;47485;51.378;-1.342;2023-04-01T08:55:31;99082.03;;;2.41;44.40
63339;BME280;47485;51.378;-1.342;2023-04-01T08:58:26;99086.39;;;1.00;45.16
63339;BME280;47485;51.378;-1.342;2023-04-01T09:01:01;99089.57;;;2.09;44.75
63339;BME280;47485;51.378;-1.342;2023-04-01T09:03:44;99086.07;;;4.57;42.20
63339;BME280;47485;51.378;-1.342;2023-04-01T09:07:32;99092.41;;;1.13;47.96
63339;BME280;47485;51.378;-1.342;2023-04-01T09:10:56;99096.24;;;0.71;46.67
63339;BME280;47485;51.378;-1.342;2023-04-01T09:13:51;99099.35;;;4.82;42.68
63339;BME280;47485;51.378;-1.342;2023-04-01T09:16:38;99097.94;;;4.99;40.49
63339;BME280;47485;51.378;-1.342;2023-04-01T09:19:21;99106.20;;;2.56;43.63
63339;BME280;47485;51.378;-1.342;2023-04-01T09:22:10;99110.60;;;1.18;45.41
63339;BME280;47485;51.378;-1.342;2023-04-01T09:24:52;99104.63;;;5.71;40.09
63339;BME280;47485;51.378;-1.342;2023-04-01T09:27:27;99110.82;;;4.72;40.91
63339;BME280;47485;51.378;-1.342;2023-04-01T09:30:29;99119.72;;;1.71;45.59
63339;BME280;47485;51.378;-1.342;2023-04-01T09:33:11;99122.39;;;2.46;44.26
63339;BME280;47485;51.378;-1.342;2023-04-01T09:35:47;99115.11;;;5.05;40.00
63339;BME280;47485;51.378;-1.342;2023-04-01T09:38:23;99115.88;;;6.41;39.08
63339;BME280;47485;51.378;-1.342;2023-04-01T09:40:56;99128.88;;;2.76;42.44
63339;BME280;47485;51.378;-1.342;2023-04-01T09:43:26;99126.17;;;5.26;39.90
63339;BME280;47485;51.378;-1.342;2023-04-01T09:46:08;99126.39;;;4.11;39.81
63339;BME280;47485;51.378;-1.342;2023-04-01T09:48:51;99131.56;;;5.32;39.58
63339;BME280;47485;51.378;-1.342;2023-04-01T09:51:33;99129.89;;;6.34;37.91
63339;BME280;47485;51.378;-1.342;2023-04-01T09:54:14;99135.59;;;5.24;37.84
63339;BME280;47485;51.378;-1.342;2023-04-01T09:57:08;99138.81;;;5.97;38.20
63339;BME280;47485;51.378;-1.342;2023-04-01T09:59:57;99140.09;;;7.39;36.09
63339;BME280;47485;51.378;-1.342;2023-04-01T10:02:48;99157.36;;;1.17;43.54
63339;BME280;47485;51.378;-1.342;2023-04-01T10:05:35;99159.64;;;1.11;45.67
63339;BME280;47485;51.378;-1.342;2023-04-01T10:08:26;99162.40;;;4.07;42.98
63339;BME280;47485;51.378;-1.342;2023-04-01T10:11:27;99167.06;;;3.40;41.92
63339;BME280;47485;51.378;-1.342;2023-04-01T10:14:25;99166.20;;;4.32;39.06
63339;BME280;47485;51.378;-1.342;2023-04-01T10:18:01;99169.28;;;7.10;37.59
63339;BME280;47485;51.378;-1.342;2023-04-01T10:20:52;99174.15;;;4.87;38.66
63339;BME280;47485;51.378;-1.342;2023-04-01T10:23:29;99188.18;;;-0.29;44.77
63339;BME280;47485;51.378;-1.342;2023-04-01T10:26:23;99191.01;;;3.48;42.20
63339;BME280;47485;51.378;-1.342;2023-04-01T10:29:23;99195.50;;;3.64;43.12
63339;BME280;47485;51.378;-1.342;2023-04-01T10:34:37;99202.21;;;2.44;43.59
63339;BME280;47485;51.378;-1.342;2023-04-01T10:37:16;99203.30;;;5.80;39.83
63339;BME280;47485;51.378;-1.342;2023-04-01T10:41:09;99208.28;;;4.99;39.12
63339;BME280;47485;51.378;-1.342;2023-04-01T10:44:10;99216.31;;;2.40;41.30
63339;BME280;47485;51.378;-1.342;2023-04-01T10:46:57;99223.70;;;2.86;42.76
63339;BME280;47485;51.378;-1.342;2023-04-01T10:50:14;99224.93;;;4.08;42.11
63339;BME280;47485;51.378;-1.342;2023-04-01T10:55:59;99223.61;;;7.61;36.98
63339;BME280;47485;51.378;-1.342;2023-04-01T10:58:54;99229.07;;;7.00;37.87
63339;BME280;47485;51.378;-1.342;2023-04-01T11:02:20;99233.27;;;6.43;36.93
63339;BME280;47485;51.378;-1.342;2023-04-01T11:07:47;99236.21;;;6.84;36.15
63339;BME280;47485;51.378;-1.342;2023-04-01T11:10:57;99243.85;;;2.75;40.77
63339;BME280;47485;51.378;-1.342;2023-04-01T11:13:54;99253.35;;;3.86;40.83
63339;BME280;47485;51.378;-1.342;2023-04-01T11:16:54;99258.81;;;2.23;44.29
63339;BME280;47485;51.378;-1.342;2023-04-01T11:21:58;99262.62;;;5.57;41.55
63339;BME280;47485;51.378;-1.342;2023-04-01T11:24:43;99269.04;;;2.74;43.76
63339;BME280;47485;51.378;-1.342;2023-04-01T11:27:28;99269.89;;;1.36;45.32
63339;BME280;47485;51.378;-1.342;2023-04-01T11:30:12;99270.82;;;3.54;42.89
63339;BME280;47485;51.378;-1.342;2023-04-01T11:32:50;99273.14;;;7.62;39.02
63339;BME280;47485;51.378;-1.342;2023-04-01T11:35:31;99283.12;;;1.37;44.14
63339;BME280;47485;51.378;-1.342;2023-04-01T11:38:10;99286.33;;;6.15;40.35
63339;BME280;47485;51.378;-1.342;2023-04-01T11:40:51;99290.62;;;5.67;41.16
63339;BME280;47485;51.378;-1.342;2023-04-01T11:43:24;99288.80;;;5.79;38.47
63339;BME280;47485;51.378;-1.342;2023-04-01T11:46:00;99297.35;;;3.48;39.76
63339;BME280;47485;51.378;-1.342;2023-04-01T11:48:40;99300.83;;;5.69;38.06
63339;BME280;47485;51.378;-1.342;2023-04-01T11:52:03;99302.62;;;6.44;37.57
63339;BME280;47485;51.378;-1.342;2023-04-01T11:54:51;99316.04;;;1.43;42.68
63339;BME280;47485;51.378;-1.342;2023-04-01T11:57:37;99320.92;;;2.56;43.08
63339;BME280;47485;51.378;-1.342;2023-04-01T12:00:35;99325.09;;;1.31;43.99
63339;BME280;47485;51.378;-1.342;2023-04-01T12:03:21;99324.30;;;4.67;41.24
63339;BME280;47485;51.378;-1.342;2023-04-01T12:05:54;99329.88;;;6.02;39.98
63339;BME280;47485;51.378;-1.342;2023-04-01T12:08:35;99337.77;;;2.58;42.55
63339;BME280;47485;51.378;-1.342;2023-04-01T12:11:09;99346.23;;;2.66;46.76
63339;BME280;47485;51.378;-1.342;2023-04-01T12:13:47;99345.95;;;3.02;44.83
63339;BME280;47485;51.378;-1.342;2023-04-01T12:16:29;99340.69;;;5.35;40.13
63339;BME280;47485;51.378;-1.342;2023-04-01T12:19:11;99343.57;;;4.33;39.54
63339;BME280;47485;51.378;-1.342;2023-04-01T12:21:48;99348.26;;;5.09;39.81
63339;BME280;47485;51.378;-1.342;2023-04-01T12:24:29;99356.52;;;3.23;41.02
63339;BME280;47485;51.378;-1.342;2023-04-01T12:27:19;99361.80;;;2.03;43.45
63339;BME280;47485;51.378;-1.342;2023-04-01T12:30:02;99365.35;;;4.54;43.20
63339;BME280;47485;51.378;-1.342;2023-04-01T12:32:41;99364.57;;;5.96;40.24
63339;BME280;47485;51.378;-1.342;2023-04-01T12:35:18;99365.24;;;4.32;41.00
63339;BME280;47485;51.378;-1.342;2023-04-01T12:37:54;99375.50;;;3.81;43.24
63339;BME280;47485;51.378;-1.342;2023-04-01T12:40:45;99376.07;;;3.57;42.53
63339;BME280;47485;51.378;-1.342;2023-04-01T12:43:32;99381.35;;;5.03;40.67
63339;BME280;47485;51.378;-1.342;2023-04-01T12:46:07;99385.85;;;3.88;42.39
63339;BME280;47485;51.378;-1.342;2023-04-01T12:48:57;99397.33;;;4.87;41.16
63339;BME280;47485;51.378;-1.342;2023-04-01T12:51:36;99402.45;;;5.65;40.81
63339;BME280;47485;51.378;-1.342;2023-04-01T12:55:28;99407.80;;;5.99;39.28
63339;BME280;47485;51.378;-1.342;2023-04-01T12:58:30;99418.41;;;5.26;40.40
63339;BME280;47485;51.378;-1.342;2023-04-01T13:01:19;99416.62;;;7.87;37.89
63339;BME280;47485;51.378;-1.342;2023-04-01T13:04:05;99420.76;;;6.74;39.57
63339;BME280;47485;51.378;-1.342;2023-04-01T13:06:44;99422.34;;;5.54;39.11
63339;BME280;47485;51.378;-1.342;2023-04-01T13:09:25;99428.08;;;7.08;37.27
63339;BME280;47485;51.378;-1.342;2023-04-01T13:12:14;99433.53;;;4.11;38.85
63339;BME280;47485;51.378;-1.342;2023-04-01T13:14:55;99434.23;;;5.33;41.47
63339;BME280;47485;51.378;-1.342;2023-04-01T13:17:32;99439.81;;;6.34;41.09
63339;BME280;47485;51.378;-1.342;2023-04-01T13:20:11;99441.80;;;5.35;41.34
63339;BME280;47485;51.378;-1.342;2023-04-01T13:22:52;99439.27;;;6.06;38.90
63339;BME280;47485;51.378;-1.342;2023-04-01T13:25:27;99442.57;;;6.81;40.59
63339;BME280;47485;51.378;-1.342;2023-04-01T13:28:03;99448.16;;;2.55;43.02
63339;BME280;47485;51.378;-1.342;2023-04-01T13:30:36;99450.03;;;3.26;43.03
63339;BME280;47485;51.378;-1.342;2023-04-01T13:33:14;99461.30;;;1.09;46.05
63339;BME280;47485;51.378;-1.342;2023-04-01T13:35:48;99458.00;;;3.18;42.51
63339;BME280;47485;51.378;-1.342;2023-04-01T13:39:13;99460.22;;;2.91;42.08
63339;BME280;47485;51.378;-1.342;2023-04-01T13:41:55;99470.96;;;3.97;42.04
63339;BME280;47485;51.378;-1.342;2023-04-01T13:44:32;99479.24;;;1.26;44.34
63339;BME280;47485;51.378;-1.342;2023-04-01T13:47:22;99480.96;;;2.25;43.31
63339;BME280;47485;51.378;-1.342;2023-04-01T13:50:06;99485.63;;;1.37;43.20
63339;BME280;47485;51.378;-1.342;2023-04-01T13:52:48;99488.27;;;5.42;39.19
63339;BME280;47485;51.378;-1.342;2023-04-01T13:55:25;99490.56;;;2.72;41.93
63339;BME280;47485;51.378;-1.342;2023-04-01T13:58:07;99491.48;;;4.70;40.19
63339;BME280;47485;51.378;-1.342;2023-04-01T14:00:52;99498.78;;;3.90;41.47